createdAt,value
2023-04-01T00:00:00.354Z,11.90
2023-04-01T00:02:27.135Z,11.90
2023-04-01T00:04:53.944Z,11.90
2023-04-01T00:07:20.676Z,11.80
2023-04-01T00:09:47.516Z,11.80
2023-04-01T00:12:14.263Z,11.80
2023-04-01T00:14:41.007Z,11.80
2023-04-01T00:17:07.869Z,11.80
2023-04-01T00:19:34.896Z,11.80
2023-04-01T00:22:01.679Z,11.80
2023-04-01T00:24:28.412Z,11.80
2023-04-01T00:26:56.341Z,11.80
2023-04-01T00:29:25.014Z,11.80
2023-04-01T00:31:51.896Z,11.80
2023-04-01T00:34:18.663Z,11.80
2023-04-01T00:36:45.353Z,11.80
2023-04-01T00:39:12.104Z,11.80
2023-04-01T00:41:38.903Z,11.80
2023-04-01T00:44:25.939Z,11.80
2023-04-01T00:46:53.738Z,11.80
2023-04-01T00:49:30.703Z,11.80
2023-04-01T00:52:02.571Z,11.80
2023-04-01T00:54:31.411Z,11.80
2023-04-01T00:57:07.062Z,11.80
2023-04-01T00:59:42.172Z,11.80
2023-04-01T01:02:12.703Z,11.80
2023-04-01T01:04:40.293Z,11.80
2023-04-01T01:07:27.942Z,11.80
2023-04-01T01:10:29.813Z,11.80
2023-04-01T01:13:05.480Z,11.80
2023-04-01T01:15:59.869Z,11.80
2023-04-01T01:18:52.637Z,11.70
2023-04-01T01:21:53.608Z,11.70
2023-04-01T01:24:49.402Z,11.70
2023-04-01T01:27:22.755Z,11.70
2023-04-01T01:30:07.434Z,11.70
2023-04-01T01:33:06.406Z,11.70
2023-04-01T01:35:59.292Z,11.70
2023-04-01T01:38:33.261Z,11.70
2023-04-01T01:41:02.678Z,11.70
2023-04-01T01:43:41.259Z,11.70
2023-04-01T01:46:15.449Z,11.70
2023-04-01T01:48:45.589Z,11.70
2023-04-01T01:51:12.552Z,11.90
2023-04-01T01:53:39.506Z,11.60
2023-04-01T01:56:06.922Z,11.60
2023-04-01T01:58:41.678Z,11.60
2023-04-01T02:01:15.506Z,11.60
2023-04-01T02:03:46.550Z,11.60
2023-04-01T02:06:19.302Z,11.60
2023-04-01T02:09:03.800Z,11.60
2023-04-01T02:11:56.987Z,11.60
2023-04-01T02:14:42.927Z,11.60
2023-04-01T02:17:18.651Z,11.60
2023-04-01T02:19:56.708Z,11.60
2023-04-01T02:22:32.641Z,11.60
2023-04-01T02:25:07.498Z,11.80
2023-04-01T02:27:34.488Z,11.60
2023-04-01T02:30:01.621Z,11.50
2023-04-01T02:32:32.123Z,11.60
2023-04-01T02:35:00.978Z,11.60
2023-04-01T02:37:27.735Z,11.60
2023-04-01T02:39:54.443Z,11.50
2023-04-01T02:42:21.252Z,11.60
2023-04-01T02:44:48.228Z,11.60
2023-04-01T02:47:14.954Z,11.60
2023-04-01T02:49:42.619Z,11.60
2023-04-01T02:52:09.312Z,11.60
2023-04-01T02:54:36.039Z,11.50
2023-04-01T02:57:02.833Z,11.50
2023-04-01T02:59:29.581Z,11.60
2023-04-01T03:01:56.516Z,11.50
2023-04-01T03:04:23.228Z,11.60
2023-04-01T03:06:50.032Z,11.60
2023-04-01T03:09:17.002Z,11.60
2023-04-01T03:11:43.690Z,11.60
2023-04-01T03:14:10.425Z,11.60
2023-04-01T03:16:37.188Z,11.50
2023-04-01T03:19:04.204Z,11.50
2023-04-01T03:21:30.974Z,11.60
2023-04-01T03:23:57.898Z,11.60
2023-04-01T03:26:24.613Z,11.50
2023-04-01T03:28:51.362Z,11.60
2023-04-01T03:31:18.162Z,11.50
2023-04-01T03:33:45.235Z,11.60
2023-04-01T03:36:13.624Z,11.60
2023-04-01T03:38:41.887Z,11.60
2023-04-01T03:41:13.340Z,11.60
2023-04-01T03:43:40.235Z,11.60
2023-04-01T03:46:07.163Z,11.60
2023-04-01T03:48:33.923Z,11.60
2023-04-01T03:51:01.013Z,11.60
2023-04-01T03:53:28.047Z,11.60
2023-04-01T03:55:54.897Z,11.60
2023-04-01T03:58:21.671Z,11.60
2023-04-01T04:00:48.412Z,11.60
2023-04-01T04:03:15.612Z,11.60
2023-04-01T04:05:51.537Z,11.60
2023-04-01T04:08:19.118Z,11.60
2023-04-01T04:10:47.261Z,11.60
2023-04-01T04:13:13.994Z,11.50
2023-04-01T04:15:40.783Z,11.60
2023-04-01T04:18:07.607Z,11.60
2023-04-01T04:20:34.332Z,11.60
2023-04-01T04:23:01.785Z,11.60
2023-04-01T04:25:28.515Z,11.60
2023-04-01T04:27:55.380Z,11.70
2023-04-01T04:30:22.139Z,11.60
2023-04-01T04:32:48.911Z,11.70
2023-04-01T04:35:16.277Z,11.70
2023-04-01T04:37:42.987Z,11.60
2023-04-01T04:40:09.949Z,11.70
2023-04-01T04:42:36.702Z,11.70
2023-04-01T04:45:03.959Z,11.70
2023-04-01T04:47:30.942Z,11.70
2023-04-01T04:49:57.686Z,11.70
2023-04-01T04:52:24.461Z,11.70
2023-04-01T04:54:51.180Z,11.70
2023-04-01T04:57:17.941Z,11.70
2023-04-01T04:59:44.732Z,11.70
2023-04-01T05:02:11.852Z,11.70
2023-04-01T05:04:38.745Z,11.70
2023-04-01T05:07:05.650Z,11.70
2023-04-01T05:09:33.073Z,11.90
2023-04-01T05:11:59.782Z,11.70
2023-04-01T05:14:26.482Z,11.70
2023-04-01T05:16:53.587Z,11.70
2023-04-01T05:19:20.494Z,11.70
2023-04-01T05:21:47.392Z,11.70
2023-04-01T05:24:14.145Z,11.70
2023-04-01T05:26:40.975Z,11.70
2023-04-01T05:29:07.764Z,11.80
2023-04-01T05:31:34.577Z,11.80
2023-04-01T05:34:01.538Z,11.70
2023-04-01T05:36:28.279Z,11.70
2023-04-01T05:38:57.957Z,11.80
2023-04-01T05:41:24.793Z,11.70
2023-04-01T05:43:51.581Z,11.70
2023-04-01T05:46:18.395Z,11.70
2023-04-01T05:48:45.247Z,11.80
2023-04-01T05:51:15.957Z,11.70
2023-04-01T05:53:43.755Z,11.70
2023-04-01T05:56:10.539Z,12.10
2023-04-01T05:58:38.383Z,11.80
2023-04-01T06:01:15.874Z,11.80
2023-04-01T06:03:43.448Z,11.80
2023-04-01T06:06:37.314Z,11.80
2023-04-01T06:09:33.325Z,11.80
2023-04-01T06:12:08.714Z,11.80
2023-04-01T06:15:11.703Z,11.80
2023-04-01T06:18:20.552Z,11.80
2023-04-01T06:21:14.207Z,11.90
2023-04-01T06:24:02.542Z,11.90
2023-04-01T06:27:00.403Z,11.90
2023-04-01T06:29:42.141Z,11.90
2023-04-01T06:32:40.798Z,11.90
2023-04-01T06:35:46.705Z,11.90
2023-04-01T06:38:37.508Z,11.90
2023-04-01T06:41:42.611Z,12.00
2023-04-01T06:44:38.963Z,12.00
2023-04-01T06:47:20.435Z,12.00
2023-04-01T06:50:49.901Z,12.00
2023-04-01T06:53:26.767Z,12.10
2023-04-01T06:56:03.359Z,12.00
2023-04-01T06:58:47.750Z,12.10
2023-04-01T07:01:24.429Z,12.10
2023-04-01T07:04:26.592Z,12.10
2023-04-01T07:07:31.971Z,12.10
2023-04-01T07:10:06.453Z,12.20
2023-04-01T07:12:33.119Z,12.20
2023-04-01T07:15:14.286Z,12.20
2023-04-01T07:17:44.822Z,12.20
2023-04-01T07:20:33.651Z,12.20
2023-04-01T07:23:07.091Z,12.30
2023-04-01T07:25:40.882Z,12.30
2023-04-01T07:28:17.351Z,12.30
2023-04-01T07:31:08.211Z,12.30
2023-04-01T07:33:51.166Z,12.30
2023-04-01T07:36:42.892Z,12.40
2023-04-01T07:39:40.065Z,12.40
2023-04-01T07:42:32.382Z,12.40
2023-04-01T07:45:36.033Z,12.50
2023-04-01T07:48:35.375Z,12.50
2023-04-01T07:51:32.593Z,12.50
2023-04-01T07:54:24.529Z,12.50
2023-04-01T07:57:14.405Z,12.50
2023-04-01T08:00:07.688Z,12.60
2023-04-01T08:03:17.428Z,12.60
2023-04-01T08:06:00.234Z,12.60
2023-04-01T08:09:14.269Z,12.60
2023-04-01T08:12:21.190Z,12.60
2023-04-01T08:15:28.066Z,12.60
2023-04-01T08:18:12.531Z,12.70
2023-04-01T08:20:54.126Z,12.70
2023-04-01T08:23:29.279Z,12.70
2023-04-01T08:26:24.191Z,12.70
2023-04-01T08:29:01.109Z,12.70
2023-04-01T08:31:46.683Z,12.70
2023-04-01T08:34:25.682Z,12.70
2023-04-01T08:37:02.547Z,12.80
2023-04-01T08:39:44.902Z,12.80
2023-04-01T08:42:51.581Z,12.80
2023-04-01T08:46:03.635Z,12.90
2023-04-01T08:49:07.182Z,12.90
2023-04-01T08:52:02.673Z,12.90
2023-04-01T08:54:48.241Z,12.90
2023-04-01T08:57:46.623Z,13.00
2023-04-01T09:00:47.571Z,13.00
2023-04-01T09:03:57.675Z,13.10
2023-04-01T09:06:52.779Z,13.10
2023-04-01T09:09:29.822Z,13.20
2023-04-01T09:12:36.997Z,13.20
2023-04-01T09:15:55.519Z,13.30
2023-04-01T09:18:22.239Z,13.40
2023-04-01T09:21:20.081Z,13.40
2023-04-01T09:24:26.482Z,13.40
2023-04-01T09:27:12.997Z,13.40
2023-04-01T09:29:54.584Z,13.50
2023-04-01T09:32:57.396Z,13.50
2023-04-01T09:35:43.236Z,13.50
2023-04-01T09:38:09.911Z,13.60
2023-04-01T09:40:46.737Z,13.60
2023-04-01T09:43:50.532Z,13.60
2023-04-01T09:46:28.010Z,13.70
2023-04-01T09:49:21.938Z,13.80
2023-04-01T09:52:33.470Z,13.80
2023-04-01T09:55:34.619Z,13.90
2023-04-01T09:58:43.998Z,14.00
2023-04-01T10:01:47.980Z,14.00
2023-04-01T10:04:34.993Z,14.20
2023-04-01T10:07:42.128Z,14.10
2023-04-01T10:10:32.796Z,14.30
2023-04-01T10:13:28.997Z,14.30
2023-04-01T10:16:04.530Z,14.40
2023-04-01T10:18:52.755Z,14.50
2023-04-01T10:21:48.893Z,14.40
2023-04-01T10:24:49.841Z,14.50
2023-04-01T10:27:49.006Z,14.60
2023-04-01T10:30:51.357Z,14.60
2023-04-01T10:34:11.834Z,14.60
2023-04-01T10:37:07.504Z,14.70
2023-04-01T10:40:13.328Z,14.70
2023-04-01T10:43:20.745Z,14.80
2023-04-01T10:46:32.558Z,14.90
2023-04-01T10:49:33.031Z,14.90
2023-04-01T10:53:07.343Z,15.00
2023-04-01T10:56:13.738Z,15.10
2023-04-01T10:59:04.749Z,15.20
2023-04-01T11:02:11.820Z,15.30
2023-04-01T11:05:21.474Z,15.30
2023-04-01T11:08:42.904Z,15.40
2023-04-01T11:11:46.337Z,15.40
2023-04-01T11:14:46.926Z,15.40
2023-04-01T11:17:55.818Z,15.40
2023-04-01T11:21:07.680Z,15.40
2023-04-01T11:24:14.592Z,15.30
2023-04-01T11:26:53.199Z,15.20
2023-04-01T11:29:35.937Z,15.20
2023-04-01T11:32:19.759Z,15.10
2023-04-01T11:35:39.813Z,15.00
2023-04-01T11:38:54.813Z,14.90
2023-04-01T11:41:44.523Z,14.80
2023-04-01T11:44:24.692Z,14.70
2023-04-01T11:47:29.963Z,14.60
2023-04-01T11:50:13.256Z,14.60
2023-04-01T11:53:03.497Z,14.50
2023-04-01T11:55:33.417Z,14.50
2023-04-01T11:58:37.749Z,14.50
2023-04-01T12:01:29.355Z,14.70
2023-04-01T12:04:55.536Z,14.50
2023-04-01T12:07:50.197Z,14.60
2023-04-01T12:10:22.809Z,14.90
2023-04-01T12:13:17.509Z,14.70
2023-04-01T12:16:19.729Z,14.80
2023-04-01T12:19:13.673Z,14.90
2023-04-01T12:22:24.064Z,15.00
2023-04-01T12:25:08.614Z,15.00
2023-04-01T12:28:14.924Z,15.10
2023-04-01T12:31:14.379Z,15.10
2023-04-01T12:33:59.902Z,15.10
2023-04-01T12:36:48.787Z,15.10
2023-04-01T12:39:57.486Z,15.20
2023-04-01T12:43:06.479Z,15.20
2023-04-01T12:45:35.873Z,15.20
2023-04-01T12:48:31.132Z,15.20
2023-04-01T12:51:15.528Z,15.20
2023-04-01T12:54:22.515Z,15.30
2023-04-01T12:57:52.597Z,15.20
2023-04-01T13:01:10.285Z,15.20
2023-04-01T13:04:28.411Z,15.20
2023-04-01T13:07:28.783Z,15.30
2023-04-01T13:10:19.376Z,15.40
2023-04-01T13:13:35.357Z,15.40
2023-04-01T13:16:11.677Z,15.50
2023-04-01T13:19:03.924Z,15.60
2023-04-01T13:22:01.127Z,15.60
2023-04-01T13:24:42.189Z,15.80
2023-04-01T13:27:39.928Z,15.90
2023-04-01T13:30:32.001Z,16.00
2023-04-01T13:33:23.701Z,16.00
2023-04-01T13:36:05.618Z,16.10
2023-04-01T13:39:09.125Z,16.10
2023-04-01T13:42:04.979Z,16.10
2023-04-01T13:44:53.528Z,16.10
2023-04-01T13:48:05.194Z,16.20
2023-04-01T13:50:46.294Z,16.20
2023-04-01T13:53:46.847Z,16.20
2023-04-01T13:56:41.584Z,16.20
2023-04-01T13:59:38.255Z,16.20
2023-04-01T14:02:30.714Z,16.20
2023-04-01T14:05:22.466Z,16.00
2023-04-01T14:08:24.964Z,16.10
2023-04-01T14:11:18.367Z,16.10
2023-04-01T14:14:19.762Z,16.20
2023-04-01T14:17:18.627Z,16.20
2023-04-01T14:20:06.510Z,16.20
2023-04-01T14:23:34.467Z,16.20
2023-04-01T14:26:21.178Z,16.20
2023-04-01T14:29:16.073Z,16.20
2023-04-01T14:32:18.910Z,16.20
2023-04-01T14:35:20.866Z,16.10
2023-04-01T14:38:18.483Z,16.10
2023-04-01T14:41:17.282Z,16.10
2023-04-01T14:43:53.047Z,16.20
2023-04-01T14:46:50.759Z,16.20
2023-04-01T14:49:36.600Z,16.20
2023-04-01T14:52:27.781Z,16.30
2023-04-01T14:54:55.589Z,16.30
2023-04-01T14:57:31.539Z,16.30
2023-04-01T15:00:05.520Z,16.30
2023-04-01T15:03:03.207Z,16.30
2023-04-01T15:06:27.241Z,16.30
2023-04-01T15:09:18.439Z,16.30
2023-04-01T15:12:45.406Z,16.30
2023-04-01T15:15:58.213Z,16.20
2023-04-01T15:18:37.295Z,16.20
2023-04-01T15:21:22.980Z,16.20
2023-04-01T15:24:23.229Z,16.20
2023-04-01T15:27:43.520Z,16.20
2023-04-01T15:30:22.583Z,16.10
2023-04-01T15:33:38.895Z,16.10
2023-04-01T15:36:41.468Z,16.10
2023-04-01T15:39:25.452Z,16.10
2023-04-01T15:42:12.641Z,16.00
2023-04-01T15:44:54.304Z,16.00
2023-04-01T15:47:40.284Z,16.00
2023-04-01T15:50:28.107Z,15.90
2023-04-01T15:53:16.564Z,15.90
2023-04-01T15:56:37.602Z,15.80
2023-04-01T15:59:54.936Z,15.60
2023-04-01T16:02:46.215Z,15.50
2023-04-01T16:05:26.574Z,15.30
2023-04-01T16:08:53.306Z,15.20
2023-04-01T16:11:49.236Z,15.00
2023-04-01T16:14:40.275Z,14.90
2023-04-01T16:17:32.077Z,14.90
2023-04-01T16:20:10.519Z,14.80
2023-04-01T16:22:49.766Z,14.70
2023-04-01T16:25:42.940Z,14.60
2023-04-01T16:28:50.650Z,14.50
2023-04-01T16:31:36.693Z,14.50
2023-04-01T16:34:17.041Z,14.40
2023-04-01T16:36:55.730Z,14.40
2023-04-01T16:39:44.562Z,14.30
2023-04-01T16:42:32.445Z,14.30
2023-04-01T16:45:07.732Z,14.20
2023-04-01T16:47:46.192Z,14.10
2023-04-01T16:50:47.598Z,14.10
2023-04-01T16:53:14.611Z,14.10
2023-04-01T16:56:18.259Z,14.00
2023-04-01T16:59:04.657Z,14.00
2023-04-01T17:02:03.363Z,13.90
2023-04-01T17:04:49.903Z,13.80
2023-04-01T17:07:56.805Z,13.80
2023-04-01T17:11:04.536Z,13.70
2023-04-01T17:14:09.616Z,13.70
2023-04-01T17:17:09.010Z,13.60
2023-04-01T17:19:50.864Z,13.60
2023-04-01T17:22:38.501Z,13.60
2023-04-01T17:25:18.489Z,13.50
2023-04-01T17:28:00.474Z,13.50
2023-04-01T17:30:30.124Z,13.40
2023-04-01T17:33:34.963Z,13.40
2023-04-01T17:36:10.507Z,13.30
2023-04-01T17:39:36.599Z,13.30
2023-04-01T17:42:15.404Z,13.20
2023-04-01T17:45:25.733Z,13.10
2023-04-01T17:48:32.452Z,13.10
2023-04-01T17:51:40.741Z,13.00
2023-04-01T17:54:47.380Z,13.00
2023-04-01T17:57:49.224Z,12.90
2023-04-01T18:00:30.093Z,12.80
2023-04-01T18:03:21.388Z,12.80
2023-04-01T18:06:27.059Z,12.80
2023-04-01T18:09:24.914Z,12.60
2023-04-01T18:12:18.239Z,12.50
2023-04-01T18:15:29.323Z,12.50
2023-04-01T18:18:18.411Z,12.50
2023-04-01T18:21:06.106Z,12.50
2023-04-01T18:24:02.218Z,12.50
2023-04-01T18:26:34.495Z,12.50
2023-04-01T18:29:20.129Z,12.40
2023-04-01T18:32:07.992Z,12.40
2023-04-01T18:35:00.222Z,12.40
2023-04-01T18:37:40.279Z,12.40
2023-04-01T18:40:44.355Z,12.40
2023-04-01T18:43:40.735Z,12.40
2023-04-01T18:46:24.566Z,12.30
2023-04-01T18:49:47.210Z,12.30
2023-04-01T18:52:40.089Z,12.30
2023-04-01T18:55:26.364Z,12.20
2023-04-01T18:58:15.497Z,12.20
2023-04-01T19:01:03.603Z,12.20
2023-04-01T19:04:17.588Z,12.20
2023-04-01T19:06:59.306Z,12.20
2023-04-01T19:09:28.316Z,12.20
2023-04-01T19:13:05.911Z,12.10
2023-04-01T19:15:50.816Z,12.10
2023-04-01T19:18:39.579Z,12.10
2023-04-01T19:21:31.410Z,12.20
2023-04-01T19:25:00.744Z,12.20
2023-04-01T19:27:47.128Z,12.20
2023-04-01T19:30:48.250Z,12.20
2023-04-01T19:34:10.104Z,12.20
2023-04-01T19:37:09.468Z,12.20
2023-04-01T19:40:20.436Z,12.10
2023-04-01T19:43:06.952Z,12.10
2023-04-01T19:45:54.314Z,12.10
2023-04-01T19:49:05.294Z,12.00
2023-04-01T19:52:05.095Z,12.00
2023-04-01T19:55:18.439Z,12.00
2023-04-01T19:57:59.694Z,12.00
2023-04-01T20:00:52.640Z,12.00
2023-04-01T20:03:48.413Z,12.00
2023-04-01T20:06:44.300Z,11.90
2023-04-01T20:09:49.485Z,11.90
2023-04-01T20:12:25.451Z,11.90
2023-04-01T20:14:59.590Z,11.90
2023-04-01T20:17:45.664Z,11.90
2023-04-01T20:20:12.362Z,11.90
2023-04-01T20:22:45.381Z,11.90
2023-04-01T20:25:33.100Z,11.90
2023-04-01T20:28:20.755Z,11.90
2023-04-01T20:31:02.892Z,11.90
2023-04-01T20:33:58.505Z,11.90
2023-04-01T20:36:28.139Z,11.90
2023-04-01T20:39:41.508Z,11.90
2023-04-01T20:42:36.243Z,11.90
2023-04-01T20:45:36.350Z,11.90
2023-04-01T20:48:30.513Z,11.90
2023-04-01T20:51:19.225Z,11.80
2023-04-01T20:54:12.679Z,11.80
2023-04-01T20:57:01.854Z,11.80
2023-04-01T20:59:48.332Z,11.80
2023-04-01T21:02:50.729Z,11.80
2023-04-01T21:05:17.417Z,11.80
2023-04-01T21:08:13.585Z,11.80
2023-04-01T21:11:12.536Z,11.80
2023-04-01T21:14:26.194Z,11.80
2023-04-01T21:17:06.722Z,11.90
2023-04-01T21:20:23.525Z,11.80
2023-04-01T21:23:22.604Z,11.80
2023-04-01T21:26:27.853Z,11.80
2023-04-01T21:29:50.933Z,11.90
2023-04-01T21:32:42.060Z,11.80
2023-04-01T21:35:53.687Z,11.90
2023-04-01T21:38:45.353Z,11.90
2023-04-01T21:41:34.979Z,11.90
2023-04-01T21:44:41.847Z,11.90
2023-04-01T21:47:52.344Z,11.90
2023-04-01T21:50:49.215Z,11.90
2023-04-01T21:53:51.424Z,11.90
2023-04-01T21:56:45.927Z,11.90
2023-04-01T21:59:53.555Z,11.90
2023-04-01T22:02:35.929Z,11.90
2023-04-01T22:05:48.066Z,11.90
2023-04-01T22:08:58.704Z,11.90
2023-04-01T22:11:58.549Z,11.90
2023-04-01T22:15:03.371Z,11.80
2023-04-01T22:17:38.820Z,11.90
2023-04-01T22:20:16.305Z,11.90
2023-04-01T22:23:30.933Z,11.90
2023-04-01T22:26:06.721Z,11.90
2023-04-01T22:29:30.984Z,11.90
2023-04-01T22:32:20.969Z,11.90
2023-04-01T22:35:02.143Z,11.90
2023-04-01T22:38:09.070Z,11.90
2023-04-01T22:40:45.181Z,11.90
2023-04-01T22:43:44.727Z,11.90
2023-04-01T22:46:54.656Z,11.80
2023-04-01T22:49:35.869Z,11.80
2023-04-01T22:52:29.511Z,11.70
2023-04-01T22:55:10.191Z,11.70
2023-04-01T22:57:40.106Z,11.60
2023-04-01T23:00:21.429Z,11.60
2023-04-01T23:03:10.291Z,11.60
2023-04-01T23:05:48.694Z,11.50
2023-04-01T23:08:43.565Z,11.40
2023-04-01T23:11:19.705Z,11.40
2023-04-01T23:13:59.453Z,11.40
2023-04-01T23:16:45.020Z,11.30
2023-04-01T23:19:21.324Z,11.30
2023-04-01T23:22:02.003Z,11.20
2023-04-01T23:24:52.175Z,11.20
2023-04-01T23:27:31.538Z,11.20
2023-04-01T23:30:00.274Z,11.20
2023-04-01T23:32:28.969Z,11.10
2023-04-01T23:35:01.401Z,11.10
2023-04-01T23:37:31.894Z,11.10
2023-04-01T23:40:02.146Z,11.00
2023-04-01T23:42:34.669Z,11.00
2023-04-01T23:45:28.696Z,11.00
2023-04-01T23:47:59.311Z,11.00
2023-04-01T23:50:28.640Z,11.00
2023-04-01T23:53:04.968Z,11.00
2023-04-01T23:55:36.339Z,10.90
2023-04-01T23:58:22.665Z,10.90
